Time;durP1;ratioP1;P1;durP2;ratioP2;P2;SDS_P1;SDS_P2;PMS_P1;PMS_P2;Temp;Humidity;BMP_temperature;BMP_pressure;BME280_temperature;BME280_humidity;BME280_pressure;Samples;Min_cycle;Max_cycle;Signal;HPM_P1;HPM_P2
2021/12/14 00:02:05;;;;;;;56.38;3.38;;;;;;;;;;5030643;28;20208;-74
2021/12/14 00:04:33;;;;;;;55.42;3.05;;;;;;;;;;5030731;28;20664;-75
2021/12/14 00:07:01;;;;;;;39.33;2.35;;;;;;;;;;5030226;28;20219;-75
2021/12/14 00:09:32;;;;;;;51.33;3.35;;;9.40;51.60;;;;;;5030682;28;20199;-75
2021/12/14 00:17:11;;;;;;;52.35;3.08;;;;;;;;;;5030651;28;20663;-75
2021/12/14 00:19:37;;;;;;;50.80;2.67;;;;;;;;;;5030537;28;20216;-74
2021/12/14 00:22:17;;;;;;;118.22;4.68;;;;;;;;;;5029950;28;20662;-72
2021/12/14 00:24:43;;;;;;;72.15;3.08;;;;;;;;;;5029858;28;20176;-74
2021/12/14 00:27:11;;;;;;;48.38;3.30;;;;;;;;;;5030414;28;20256;-74
2021/12/14 00:29:42;;;;;;;51.97;2.78;;;9.30;53.10;;;;;;5029971;28;20290;-75
2021/12/14 00:32:13;;;;;;;40.10;2.47;;;;;;;;;;5030385;28;20169;-75
2021/12/14 00:34:42;;;;;;;49.90;2.75;;;;;;;;;;5030196;28;20226;-75
2021/12/14 00:37:10;;;;;;;41.45;2.50;;;;;;;;;;5031813;28;20179;-74
2021/12/14 00:39:36;;;;;;;35.42;2.20;;;;;;;;;;5033929;28;20204;-74
2021/12/14 00:42:04;;;;;;;53.70;2.53;;;9.00;53.80;;;;;;5034310;28;20177;-75
2021/12/14 00:44:30;;;;;;;36.67;2.33;;;;;;;;;;5034019;28;20188;-75
2021/12/14 00:46:56;;;;;;;68.47;3.53;;;9.40;52.00;;;;;;5033871;28;20179;-74
2021/12/14 00:49:22;;;;;;;44.38;2.33;;;;;;;;;;5034133;28;20582;-75
2021/12/14 00:51:48;;;;;;;49.80;2.88;;;;;;;;;;5033959;28;20250;-74
2021/12/14 00:54:16;;;;;;;47.33;2.38;;;;;;;;;;5033808;28;20707;-75
2021/12/14 00:56:43;;;;;;;24.17;1.75;;;;;;;;;;5033987;28;20656;-74
2021/12/14 00:59:09;;;;;;;32.90;2.60;;;9.30;53.40;;;;;;5026086;28;20220;-75
2021/12/14 01:01:41;;;;;;;65.72;4.25;;;9.20;54.00;;;;;;5032266;28;20196;-75
2021/12/14 01:04:11;;;;;;;38.40;2.45;;;9.40;53.40;;;;;;5033205;28;20172;-75
2021/12/14 01:06:44;;;;;;;53.83;2.97;;;;;;;;;;5033726;28;20173;-76
2021/12/14 01:09:11;;;;;;;37.90;2.15;;;;;;;;;;5034085;28;20205;-76
2021/12/14 01:11:47;;;;;;;31.60;2.00;;;9.50;53.20;;;;;;5033860;28;20181;-75
2021/12/14 01:14:27;;;;;;;48.55;3.00;;;9.50;53.70;;;;;;5033824;28;20181;-75
2021/12/14 01:17:08;;;;;;;40.85;2.35;;;;;;;;;;5033221;28;20179;-75
2021/12/14 01:19:36;;;;;;;44.25;2.47;;;;;;;;;;5033719;28;20212;-74
2021/12/14 01:27:09;;;;;;;74.35;3.38;;;9.70;50.70;;;;;;5033311;28;20196;-75
2021/12/14 01:29:37;;;;;;;39.03;2.63;;;9.70;50.30;;;;;;5033213;28;20211;-75
2021/12/14 01:32:03;;;;;;;41.88;2.47;;;;;;;;;;5033420;28;20271;-75
2021/12/14 01:34:32;;;;;;;44.80;2.30;;;9.60;50.40;;;;;;5033551;28;20176;-73
2021/12/14 01:37:05;;;;;;;33.33;2.20;;;;;;;;;;5033237;28;20181;-76
2021/12/14 01:42:10;;;;;;;50.15;2.60;;;;;;;;;;5033280;28;20199;-75
2021/12/14 01:44:48;;;;;;;45.88;3.33;;;9.20;53.40;;;;;;5026233;28;20181;-75
2021/12/14 01:47:17;;;;;;;70.13;3.10;;;;;;;;;;5032601;28;20168;-75
2021/12/14 01:49:44;;;;;;;33.35;2.15;;;;;;;;;;5032974;28;20197;-74
2021/12/14 01:52:14;;;;;;;31.13;2.80;;;9.00;55.20;;;;;;5032880;28;20583;-73
2021/12/14 01:54:42;;;;;;;42.83;2.63;;;;;;;;;;5033066;28;20181;-75
2021/12/14 01:57:11;;;;;;;36.88;2.25;;;;;;;;;;5033018;28;20735;-75
2021/12/14 01:59:41;;;;;;;37.28;2.17;;;8.70;56.30;;;;;;5028108;28;20303;-75
2021/12/14 02:02:21;;;;;;;48.20;2.45;;;;;;;;;;5032849;28;20182;-75
2021/12/14 02:04:51;;;;;;;48.80;2.65;;;8.20;55.00;;;;;;5026372;28;20153;-75
2021/12/14 02:07:19;;;;;;;54.42;2.70;;;8.10;54.90;;;;;;5032410;28;20173;-75
2021/12/14 02:09:52;;;;;;;49.70;2.47;;;8.00;53.70;;;;;;5032860;28;20640;-75
2021/12/14 02:12:20;;;;;;;45.13;2.30;;;;;;;;;;5029476;28;20219;-75
2021/12/14 02:14:47;;;;;;;33.90;2.00;;;;;;;;;;5029293;28;20188;-75
2021/12/14 02:17:16;;;;;;;34.22;2.50;;;;;;;;;;5032050;28;20177;-75
2021/12/14 02:19:43;;;;;;;32.97;2.05;;;;;;;;;;5031531;28;20695;-75
2021/12/14 02:22:09;;;;;;;43.97;2.40;;;8.40;51.50;;;;;;5032485;28;20260;-75
2021/12/14 02:24:36;;;;;;;54.40;2.53;;;;;;;;;;5032298;28;20189;-75
2021/12/14 02:27:03;;;;;;;54.83;2.80;;;;;;;;;;5031609;28;20499;-75
2021/12/14 02:29:30;;;;;;;70.28;3.13;;;;;;;;;;5032167;28;20672;-75
2021/12/14 02:32:14;;;;;;;42.20;2.25;;;;;;;;;;5032186;28;20180;-76
2021/12/14 02:34:44;;;;;;;62.20;2.78;;;8.30;54.30;;;;;;5031132;28;20522;-75
2021/12/14 02:37:10;;;;;;;70.30;3.83;;;;;;;;;;5031760;28;20177;-75
2021/12/14 02:42:04;;;;;;;50.90;2.42;;;;;;;;;;5032262;28;20185;-74
2021/12/14 02:44:30;;;;;;;22.98;1.80;;;;;;;;;;5031931;28;20180;-75
2021/12/14 02:47:00;;;;;;;44.35;2.30;;;7.90;52.60;;;;;;5031366;28;20172;-75
2021/12/14 02:49:29;;;;;;;49.28;2.53;;;7.50;54.30;;;;;;5031786;28;20261;-75
2021/12/14 02:52:08;;;;;;;59.10;2.75;;;7.50;54.10;;;;;;5030926;28;20622;-73
2021/12/14 02:54:43;;;;;;;36.42;2.10;;;;;;;;;;5031821;28;20305;-75
2021/12/14 02:57:11;;;;;;;40.47;2.25;;;;;;;;;;5030659;28;20227;-75
2021/12/14 02:59:39;;;;;;;36.08;2.22;;;;;;;;;;5030534;28;20295;-75
2021/12/14 03:02:15;;;;;;;43.83;2.45;;;7.60;54.50;;;;;;5031189;28;20252;-74
2021/12/14 03:04:44;;;;;;;69.68;3.13;;;7.90;53.50;;;;;;5031262;28;20206;-75
2021/12/14 03:07:12;;;;;;;44.47;2.53;;;8.00;52.80;;;;;;5031228;28;20187;-74
2021/12/14 03:12:20;;;;;;;28.98;1.85;;;;;;;;;;5025316;28;20187;-73
2021/12/14 03:14:48;;;;;;;73.20;3.10;;;;;;;;;;5031251;28;20596;-75
2021/12/14 03:17:14;;;;;;;75.82;3.45;;;;;;;;;;5023965;28;20281;-75
2021/12/14 03:19:40;;;;;;;35.63;2.10;;;;;;;;;;5031293;28;20232;-75
2021/12/14 03:22:20;;;;;;;35.42;2.10;;;;;;;;;;5030853;28;20415;-75
2021/12/14 03:24:46;;;;;;;59.53;2.78;;;;;;;;;;5030964;28;20177;-75
2021/12/14 03:27:11;;;;;;;44.95;2.80;;;7.50;51.30;;;;;;5030685;28;20173;-75
2021/12/14 03:29:37;;;;;;;42.10;2.63;;;7.30;52.70;;;;;;5031118;28;20200;-75
2021/12/14 03:32:03;;;;;;;49.77;2.57;;;7.30;52.30;;;;;;5030847;28;20180;-75
2021/12/14 03:34:32;;;;;;;50.10;2.80;;;;;;;;;;5030842;28;20181;-75
2021/12/14 03:37:00;;;;;;;60.22;3.78;;;;;;;;;;5030548;28;20194;-75
2021/12/14 03:39:55;;;;;;;58.70;2.78;;;7.50;51.40;;;;;;5030757;28;20258;-75
2021/12/14 03:42:33;;;;;;;37.90;2.10;;;7.50;50.80;;;;;;5008579;28;20196;-75
2021/12/14 03:44:59;;;;;;;49.92;2.75;;;7.60;50.50;;;;;;5008582;28;20184;-75
2021/12/14 03:47:35;;;;;;;46.93;2.30;;;7.40;51.20;;;;;;5008594;28;20189;-74
2021/12/14 03:50:21;;;;;;;61.97;3.13;;;;;;;;;;5008375;28;20262;-75
2021/12/14 03:52:47;;;;;;;25.38;1.75;;;;;;;;;;5008066;28;20574;-74
2021/12/14 03:55:25;;;;;;;41.33;2.30;;;;;;;;;;5008242;28;20217;-75
2021/12/14 03:57:52;;;;;;;40.80;2.22;;;;;;;;;;5008222;28;20188;-73
2021/12/14 04:00:40;;;;;;;44.75;2.33;;;7.40;51.10;;;;;;5008231;28;20244;-75
2021/12/14 04:03:10;;;;;;;41.28;2.38;;;;;;;;;;5007125;28;20196;-75
2021/12/14 04:05:36;;;;;;;39.58;2.13;;;7.40;51.00;;;;;;5008381;28;20189;-75
2021/12/14 04:08:02;;;;;;;51.38;2.50;;;7.40;50.80;;;;;;5007795;28;20182;-75
2021/12/14 04:10:31;;;;;;;50.58;2.50;;;7.30;50.80;;;;;;5008485;28;20212;-75
2021/12/14 04:12:57;;;;;;;45.70;2.53;;;;;;;;;;5007932;28;20224;-75
2021/12/14 04:15:26;;;;;;;36.03;2.28;;;7.60;49.70;;;;;;5008013;28;20224;-73
2021/12/14 04:17:52;;;;;;;51.75;2.60;;;7.70;47.80;;;;;;5008526;28;20185;-75
2021/12/14 04:20:32;;;;;;;27.23;2.05;;;7.80;48.30;;;;;;5029611;28;20203;-75
2021/12/14 04:22:59;;;;;;;66.45;2.90;;;7.70;49.10;;;;;;5029943;28;20648;-75
2021/12/14 04:25:30;;;;;;;90.22;3.70;;;;;;;;;;5023753;28;20191;-75
2021/12/14 04:27:58;;;;;;;32.40;2.00;;;;;;;;;;5029861;28;20592;-75
2021/12/14 04:30:27;;;;;;;34.42;2.25;;;8.00;47.30;;;;;;5030172;28;20200;-75
2021/12/14 04:32:55;;;;;;;34.30;2.28;;;;;;;;;;5030111;28;20188;-75
2021/12/14 04:35:21;;;;;;;43.67;2.35;;;7.60;48.30;;;;;;5030217;28;20185;-75
2021/12/14 04:37:53;;;;;;;33.90;1.93;;;7.50;49.30;;;;;;5029777;28;20180;-75
2021/12/14 04:54:05;;;;;;;40.85;2.35;;;7.30;48.50;;;;;;5030386;28;20183;-75
2021/12/14 04:56:37;;;;;;;39.17;2.40;;;;;;;;;;5029666;28;20184;-75
2021/12/14 04:59:15;;;;;;;44.47;2.50;;;;;;;;;;5029560;28;20266;-75
2021/12/14 05:01:44;;;;;;;24.27;1.75;;;7.40;46.80;;;;;;5030241;28;20263;-75
2021/12/14 05:04:17;;;;;;;39.08;2.40;;;7.50;46.90;;;;;;5029961;28;20176;-75
2021/12/14 05:06:57;;;;;;;61.42;2.92;;;7.40;47.90;;;;;;5029639;28;20260;-75
2021/12/14 05:09:29;;;;;;;54.42;2.50;;;;;;;;;;5028256;28;20200;-75
2021/12/14 05:12:00;;;;;;;76.85;3.15;;;;;;;;;;5029629;28;20173;-74
2021/12/14 05:14:28;;;;;;;44.92;2.38;;;7.10;50.60;;;;;;5029801;28;20191;-75
2021/12/14 05:16:59;;;;;;;38.05;2.10;;;7.20;50.00;;;;;;5030233;28;20184;-75
2021/12/14 05:19:27;;;;;;;61.58;2.80;;;7.30;49.80;;;;;;5029579;28;20201;-76
2021/12/14 05:21:53;;;;;;;52.78;2.70;;;;;;;;;;5029786;28;20177;-75
2021/12/14 05:24:24;;;;;;;72.25;3.13;;;;;;;;;;5032447;28;20251;-75
2021/12/14 05:26:55;;;;;;;95.65;3.83;;;;;;;;;;5033120;28;20656;-75
2021/12/14 05:29:25;;;;;;;54.70;2.50;;;7.50;50.40;;;;;;5033105;28;20610;-75
2021/12/14 05:31:52;;;;;;;51.42;2.53;;;;;;;;;;5032421;28;20285;-76
2021/12/14 05:34:21;;;;;;;24.45;2.75;;;7.50;51.20;;;;;;5065598;22;20732;-71
2021/12/14 05:36:47;;;;;;;27.65;3.30;;;7.50;51.90;;;;;;5051773;28;20233;-68
2021/12/14 05:44:39;;;;;;;14.98;2.30;;;7.50;54.10;;;;;;5054430;28;20203;-70
2021/12/14 05:47:12;;;;;;;27.27;2.97;;;7.60;53.60;;;;;;5047946;28;20255;-71
2021/12/14 05:49:40;;;;;;;26.63;3.60;;;7.30;55.70;;;;;;5052179;28;20243;-69
2021/12/14 05:52:26;;;;;;;19.13;2.30;;;6.80;60.20;;;;;;5052666;28;20175;-69
2021/12/14 05:54:55;;;;;;;18.70;2.30;;;6.50;64.20;;;;;;5047216;28;20195;-69
2021/12/14 05:57:23;;;;;;;19.60;2.65;;;6.40;70.00;;;;;;5054248;28;20176;-69
2021/12/14 05:59:49;;;;;;;13.55;1.90;;;6.80;66.80;;;;;;5046919;28;20203;-67
2021/12/14 06:02:15;;;;;;;18.73;2.35;;;6.30;67.10;;;;;;5055312;28;20381;-68
2021/12/14 06:04:46;;;;;;;11.63;1.83;;;5.90;69.70;;;;;;5054889;28;20751;-69
2021/12/14 06:07:12;;;;;;;18.52;2.20;;;5.50;71.40;;;;;;5054006;28;20407;-68
2021/12/14 06:09:44;;;;;;;18.63;2.42;;;5.40;75.10;;;;;;5054140;28;20184;-69
2021/12/14 06:12:17;;;;;;;14.85;2.20;;;6.20;66.00;;;;;;5053999;28;20168;-68
2021/12/14 06:14:51;;;;;;;22.02;2.85;;;6.70;59.50;;;;;;5054026;28;20211;-69
2021/12/14 06:17:22;;;;;;;19.73;3.17;;;6.70;58.90;;;;;;5053640;28;20171;-68
2021/12/14 06:19:58;;;;;;;17.30;2.30;;;6.60;60.10;;;;;;5052088;28;20203;-69
2021/12/14 06:22:25;;;;;;;15.52;2.10;;;6.70;59.50;;;;;;5053862;28;20176;-69
2021/12/14 06:24:59;;;;;;;20.77;3.30;;;6.80;58.90;;;;;;5053866;28;20212;-70
2021/12/14 06:27:27;;;;;;;23.08;2.85;;;7.00;58.40;;;;;;5054034;28;20183;-73
2021/12/14 06:30:00;;;;;;;16.38;2.67;;;6.90;56.00;;;;;;5053876;28;20199;-70
2021/12/14 06:32:42;;;;;;;13.02;1.90;;;7.10;55.00;;;;;;5054211;28;20191;-70
2021/12/14 06:35:32;;;;;;;17.52;2.53;;;7.30;53.10;;;;;;5052565;28;20572;-70
2021/12/14 06:40:48;;;;;;;18.30;2.17;;;7.20;54.60;;;;;;5053824;28;20214;-70
2021/12/14 06:43:20;;;;;;;24.55;2.90;;;6.90;56.40;;;;;;5048182;28;20196;-69
2021/12/14 06:45:51;;;;;;;25.80;3.47;;;7.10;55.80;;;;;;5055136;28;20178;-69
2021/12/14 06:48:20;;;;;;;18.80;2.42;;;6.80;55.70;;;;;;5054475;28;20179;-71
2021/12/14 06:51:10;;;;;;;23.08;2.92;;;6.60;59.90;;;;;;5055128;28;20230;-69
2021/12/14 06:53:36;;;;;;;23.65;2.40;;;5.60;66.00;;;;;;5055579;28;20683;-69
2021/12/14 06:56:07;;;;;;;28.92;4.65;;;5.10;71.40;;;;;;5053671;28;20188;-70
2021/12/14 06:58:55;;;;;;;13.82;2.38;;;5.40;69.00;;;;;;5052795;28;20263;-70
2021/12/14 07:01:28;;;;;;;25.55;2.97;;;5.90;64.30;;;;;;5053198;28;20191;-70
2021/12/14 07:03:53;;;;;;;14.85;2.30;;;6.60;59.30;;;;;;5052561;28;20200;-70
2021/12/14 07:06:27;;;;;;;14.17;2.33;;;7.00;55.70;;;;;;5051916;28;20180;-74
2021/12/14 07:08:57;;;;;;;19.92;2.53;;;7.20;54.00;;;;;;5051343;28;20592;-74
2021/12/14 07:11:25;;;;;;;18.02;2.25;;;7.00;54.50;;;;;;5051718;28;20183;-74
2021/12/14 07:13:53;;;;;;;14.40;2.40;;;6.90;54.50;;;;;;5050611;28;20200;-71
2021/12/14 07:16:32;;;;;;;10.27;1.80;;;6.80;55.60;;;;;;5044966;28;20180;-71
2021/12/14 07:19:03;;;;;;;18.35;3.10;;;6.60;55.40;;;;;;5035453;28;20191;-71
2021/12/14 07:21:42;;;;;;;8.27;1.50;;;6.40;57.50;;;;;;5051467;28;20202;-71
2021/12/14 07:24:30;;;;;;;15.30;2.13;;;6.70;55.30;;;;;;5050356;28;20658;-71
2021/12/14 07:27:21;;;;;;;10.65;1.95;;;6.90;55.10;;;;;;5051236;28;20184;-71
2021/12/14 07:29:48;;;;;;;13.57;1.80;;;6.80;55.80;;;;;;5048724;28;20870;-71
2021/12/14 07:32:13;;;;;;;9.10;1.80;;;6.70;57.70;;;;;;5051300;28;20313;-71
2021/12/14 07:34:39;;;;;;;19.20;2.47;;;6.50;61.20;;;;;;5051210;28;20290;-70
2021/12/14 07:37:05;;;;;;;14.57;2.60;;;6.50;58.90;;;;;;5050460;28;20176;-70
2021/12/14 07:39:31;;;;;;;13.17;1.87;;;6.90;57.00;;;;;;5051264;28;20678;-70
2021/12/14 07:41:59;;;;;;;17.13;2.33;;;7.40;52.50;;;;;;5050672;28;20513;-72
2021/12/14 07:44:29;;;;;;;16.80;2.08;;;7.50;51.80;;;;;;5051498;28;20196;-70
2021/12/14 07:47:04;;;;;;;13.43;1.95;;;6.90;54.30;;;;;;5050217;28;20238;-71
2021/12/14 07:49:54;;;;;;;11.15;2.08;;;6.10;59.20;;;;;;5044384;28;20214;-72
2021/12/14 07:52:23;;;;;;;13.73;2.33;;;6.00;61.50;;;;;;5050862;28;20183;-72
2021/12/14 07:54:59;;;;;;;22.13;2.80;;;7.20;57.40;;;;;;5050353;28;20199;-72
2021/12/14 07:57:32;;;;;;;18.00;2.30;;;7.30;53.00;;;;;;5049156;28;20274;-70
2021/12/14 07:59:59;;;;;;;14.60;2.45;;;8.10;49.90;;;;;;5049804;28;20200;-71
2021/12/14 08:02:38;;;;;;;14.35;2.45;;;8.00;49.50;;;;;;5049242;28;20176;-72
2021/12/14 08:05:23;;;;;;;18.58;3.42;;;8.20;48.00;;;;;;5049255;28;20202;-71
2021/12/14 08:07:58;;;;;;;14.82;2.30;;;8.30;48.10;;;;;;5050230;28;20188;-71
2021/12/14 08:10:41;;;;;;;45.15;5.88;;;7.90;50.10;;;;;;5048908;28;20172;-69
2021/12/14 08:13:12;;;;;;;22.02;2.83;;;6.20;60.20;;;;;;5046956;28;20190;-72
2021/12/14 08:15:49;;;;;;;21.00;2.70;;;6.20;60.90;;;;;;5046554;28;20777;-71
2021/12/14 08:18:30;;;;;;;29.20;3.65;;;6.00;61.60;;;;;;5045431;28;20179;-72
2021/12/14 08:20:58;;;;;;;25.58;4.13;;;5.80;63.30;;;;;;5043798;28;20288;-72
2021/12/14 08:23:29;;;;;;;14.02;2.38;;;5.70;66.30;;;;;;5043544;28;20234;-70
2021/12/14 08:26:12;;;;;;;13.95;2.05;;;5.90;64.70;;;;;;5048306;28;20670;-72
2021/12/14 08:28:53;;;;;;;16.92;2.42;;;6.80;58.30;;;;;;5046464;28;20179;-71
2021/12/14 08:31:25;;;;;;;25.27;3.60;;;7.40;53.50;;;;;;5048893;28;20168;-71
2021/12/14 08:33:57;;;;;;;15.30;2.25;;;7.70;52.40;;;;;;5049370;28;20218;-70
2021/12/14 08:36:23;;;;;;;15.35;2.42;;;7.90;50.50;;;;;;5049359;28;20178;-72
2021/12/14 08:39:07;;;;;;;20.15;2.97;;;7.80;50.00;;;;;;5049836;28;20589;-72
2021/12/14 08:41:33;;;;;;;26.17;3.28;;;7.90;51.20;;;;;;5048701;28;20237;-70
2021/12/14 08:44:04;;;;;;;17.90;2.93;;;7.40;51.70;;;;;;5048896;28;20253;-72
2021/12/14 08:46:31;;;;;;;18.65;2.88;;;7.10;54.90;;;;;;5048980;28;20172;-72
2021/12/14 08:48:59;;;;;;;14.20;1.95;;;7.40;53.60;;;;;;5049781;28;20194;-72
2021/12/14 08:51:29;;;;;;;25.52;3.85;;;7.40;53.10;;;;;;5049261;28;20690;-69
2021/12/14 08:53:58;;;;;;;13.32;2.50;;;7.00;54.90;;;;;;5048394;28;20249;-69
2021/12/14 08:56:30;;;;;;;19.45;2.80;;;7.20;55.20;;;;;;5049210;28;20183;-72
2021/12/14 08:58:57;;;;;;;19.67;3.50;;;7.30;54.20;;;;;;5054771;28;20421;-72
2021/12/14 09:01:27;;;;;;;16.35;2.55;;;8.00;51.30;;;;;;5053734;28;20546;-71
2021/12/14 09:04:04;;;;;;;17.50;2.53;;;8.50;49.20;;;;;;5052578;28;20322;-72
2021/12/14 09:06:34;;;;;;;18.98;3.05;;;8.80;48.30;;;;;;5053186;28;20261;-71
2021/12/14 09:09:04;;;;;;;14.13;2.40;;;8.90;48.60;;;;;;5053907;28;20333;-71
2021/12/14 09:11:32;;;;;;;14.25;2.10;;;8.80;48.60;;;;;;5052808;28;20187;-70
2021/12/14 09:13:58;;;;;;;22.58;3.40;;;8.50;50.30;;;;;;5053543;28;20296;-71
2021/12/14 09:16:29;;;;;;;22.55;3.50;;;8.70;48.40;;;;;;5053510;28;20180;-70
2021/12/14 09:19:26;;;;;;;16.92;2.67;;;8.40;49.50;;;;;;5053536;28;20196;-70
2021/12/14 09:21:55;;;;;;;17.48;3.15;;;8.50;49.50;;;;;;5049033;28;20180;-71
2021/12/14 09:24:24;;;;;;;16.33;2.70;;;8.50;49.50;;;;;;5051977;28;20203;-71
2021/12/14 09:27:00;;;;;;;16.75;2.28;;;7.80;52.60;;;;;;5053084;28;20258;-72
2021/12/14 09:29:27;;;;;;;10.15;2.47;;;7.60;53.90;;;;;;5053018;28;20547;-70
2021/12/14 09:31:56;;;;;;;14.43;2.17;;;7.90;53.40;;;;;;5053044;28;20187;-72
2021/12/14 09:34:27;;;;;;;15.13;3.30;;;8.30;51.30;;;;;;5058278;28;20231;-71
2021/12/14 09:36:54;;;;;;;13.80;2.17;;;8.40;50.80;;;;;;5052587;28;20185;-71
2021/12/14 09:39:31;;;;;;;15.73;3.53;;;8.70;49.90;;;;;;5052756;28;20199;-71
2021/12/14 09:42:00;;;;;;;12.48;2.00;;;8.00;52.20;;;;;;5053057;28;20317;-71
2021/12/14 09:44:29;;;;;;;15.02;2.72;;;7.80;53.90;;;;;;5052287;28;20192;-71
2021/12/14 09:47:00;;;;;;;14.88;2.65;;;8.00;53.20;;;;;;5053054;28;20180;-70
2021/12/14 09:49:26;;;;;;;17.63;2.60;;;8.00;52.80;;;;;;5053574;28;20188;-72
2021/12/14 09:52:02;;;;;;;12.82;1.95;;;7.40;57.90;;;;;;5053272;28;20208;-69
2021/12/14 09:54:30;;;;;;;17.10;2.60;;;7.90;56.60;;;;;;5053454;28;20203;-70
2021/12/14 09:57:01;;;;;;;13.82;2.30;;;8.00;54.70;;;;;;5053236;28;20185;-71
2021/12/14 09:59:27;;;;;;;16.13;2.38;;;7.70;57.40;;;;;;5053588;28;20196;-70
2021/12/14 10:01:58;;;;;;;17.60;3.00;;;7.30;59.20;;;;;;5052884;28;20735;-71
2021/12/14 10:04:29;;;;;;;14.02;2.60;;;8.00;56.80;;;;;;5052685;28;20210;-70
2021/12/14 10:06:57;;;;;;;17.65;2.90;;;8.70;52.30;;;;;;5048360;28;20526;-71
2021/12/14 10:09:26;;;;;;;13.95;2.53;;;9.50;49.20;;;;;;5052074;28;20592;-71
2021/12/14 10:12:17;;;;;;;13.90;2.63;;;9.60;48.00;;;;;;5052614;28;20267;-71
2021/12/14 10:14:45;;;;;;;13.25;2.33;;;9.90;46.70;;;;;;5051980;28;20713;-70
2021/12/14 10:17:13;;;;;;;10.40;2.40;;;10.40;43.40;;;;;;5051846;28;20206;-71
2021/12/14 10:19:40;;;;;;;12.82;2.40;;;10.40;43.40;;;;;;5052308;28;20211;-71
2021/12/14 10:22:24;;;;;;;14.00;2.75;;;10.40;44.00;;;;;;5050130;28;20180;-71
2021/12/14 10:24:59;;;;;;;14.52;2.53;;;10.30;44.40;;;;;;5052022;28;20265;-70
2021/12/14 10:27:28;;;;;;;13.98;2.35;;;10.20;43.90;;;;;;5051312;28;20173;-71
2021/12/14 10:29:55;;;;;;;22.35;3.28;;;9.80;45.90;;;;;;5051990;28;20194;-71
2021/12/14 10:32:27;;;;;;;19.55;3.65;;;9.00;49.50;;;;;;5052276;28;20177;-71
2021/12/14 10:34:58;;;;;;;13.10;3.03;;;8.50;52.30;;;;;;5051873;28;20214;-71
2021/12/14 10:37:51;;;;;;;10.90;2.03;;;8.80;52.10;;;;;;5051432;28;20577;-74
2021/12/14 10:43:13;;;;;;;16.20;3.25;;;10.50;44.50;;;;;;5052000;28;20261;-73
2021/12/14 10:45:42;;;;;;;17.23;2.95;;;10.50;45.00;;;;;;5052124;28;20165;-71
2021/12/14 10:48:09;;;;;;;17.98;3.20;;;10.60;44.70;;;;;;5051203;28;20185;-72
2021/12/14 10:50:36;;;;;;;14.88;3.65;;;10.90;43.90;;;;;;5052256;28;20299;-71
2021/12/14 10:53:04;;;;;;;16.73;3.60;;;11.10;42.40;;;;;;5049818;28;20605;-71
2021/12/14 10:55:42;;;;;;;13.43;2.53;;;11.50;41.30;;;;;;5051260;28;20202;-71
2021/12/14 10:58:09;;;;;;;15.45;3.05;;;11.40;40.60;;;;;;5051495;28;20175;-71
2021/12/14 11:00:41;;;;;;;16.98;3.17;;;11.50;40.00;;;;;;5051699;28;20211;-71
2021/12/14 11:03:12;;;;;;;14.93;3.05;;;11.80;38.50;;;;;;5050899;28;20262;-69
2021/12/14 11:05:40;;;;;;;14.18;2.83;;;11.80;39.30;;;;;;5051479;28;20207;-71
2021/12/14 11:08:32;;;;;;;23.92;3.67;;;11.90;38.90;;;;;;5051110;28;20261;-70
2021/12/14 11:10:58;;;;;;;15.57;3.63;;;12.10;40.70;;;;;;5050123;28;20187;-71
2021/12/14 11:13:24;;;;;;;12.70;3.17;;;11.70;39.80;;;;;;5050871;28;20617;-71
2021/12/14 11:15:54;;;;;;;12.93;2.50;;;11.80;41.20;;;;;;5051084;28;20426;-71
2021/12/14 11:18:24;;;;;;;13.23;2.83;;;11.90;39.80;;;;;;5050970;28;20428;-70
2021/12/14 11:21:07;;;;;;;12.32;2.60;;;12.00;40.10;;;;;;5050429;28;20210;-71
2021/12/14 11:23:43;;;;;;;11.93;2.75;;;12.00;39.00;;;;;;5051143;28;20666;-71
2021/12/14 11:26:20;;;;;;;16.03;3.37;;;11.70;40.20;;;;;;5050288;28;20190;-71
2021/12/14 11:28:59;;;;;;;13.13;2.50;;;11.90;39.90;;;;;;5051249;28;20561;-70
2021/12/14 11:31:41;;;;;;;16.87;3.13;;;11.90;39.70;;;;;;5050937;28;20418;-71
2021/12/14 11:34:14;;;;;;;15.80;3.90;;;12.40;38.60;;;;;;5050455;28;20952;-71
2021/12/14 11:39:08;;;;;;;37.70;2.73;;;;;;;;;;5046643;28;20479;-75
2021/12/14 11:41:50;;;;;;;35.33;2.87;;;12.20;37.90;;;;;;5031247;28;20910;-76
2021/12/14 11:44:36;;;;;;;57.43;3.20;;;12.50;36.70;;;;;;5031123;28;20439;-75
2021/12/14 11:50:04;;;;;;;29.03;2.70;;;13.00;36.70;;;;;;5025410;28;20414;-75
2021/12/14 11:52:40;;;;;;;38.30;3.50;;;;;;;;;;5033390;28;20458;-77
2021/12/14 11:55:17;;;;;;;64.53;3.80;;;;;;;;;;5031352;28;20419;-77
2021/12/14 11:57:44;;;;;;;42.07;3.60;;;;;;;;;;5031037;28;20442;-75
2021/12/14 12:00:13;;;;;;;49.40;3.50;;;;;;;;;;5030287;28;20504;-75
2021/12/14 12:02:39;;;;;;;40.30;3.03;;;;;;;;;;5029776;28;20431;-75
2021/12/14 12:05:18;;;;;;;68.17;4.17;;;;;;;;;;5028929;28;20452;-74
2021/12/14 12:10:44;;;;;;;61.50;4.07;;;;;;;;;;5030486;28;20993;-77
2021/12/14 12:13:10;;;;;;;58.20;4.57;;;;;;;;;;5030404;28;20476;-77
2021/12/14 12:15:42;;;;;;;42.73;2.97;;;14.30;33.30;;;;;;5031189;28;20797;-77
2021/12/14 12:18:09;;;;;;;55.00;4.10;;;;;;;;;;5030019;28;20448;-76
2021/12/14 12:20:38;;;;;;;40.80;3.20;;;;;;;;;;5029145;28;20473;-77
2021/12/14 12:23:04;;;;;;;50.33;3.20;;;;;;;;;;5029328;28;20437;-76
2021/12/14 12:25:31;;;;;;;35.20;3.13;;;14.20;32.50;;;;;;5031927;28;20426;-77
2021/12/14 12:28:02;;;;;;;36.03;2.73;;;;;;;;;;5030063;28;20543;-77
2021/12/14 12:30:37;;;;;;;47.53;3.83;;;15.10;31.10;;;;;;5031504;28;20913;-75
2021/12/14 12:33:22;;;;;;;61.90;4.27;;;15.20;31.90;;;;;;5026466;28;20440;-77
2021/12/14 12:36:15;;;;;;;48.53;3.73;;;14.70;32.00;;;;;;5033005;28;20524;-76
2021/12/14 12:38:41;;;;;;;48.17;3.30;;;14.60;32.60;;;;;;5033735;28;20476;-77
2021/12/14 12:41:10;;;;;;;47.33;5.57;;;;;;;;;;5042348;28;20430;-76
2021/12/14 12:43:36;;;;;;;26.57;2.93;;;;;;;;;;5039349;28;20626;-77
2021/12/14 12:46:21;;;;;;;103.83;5.70;;;14.60;33.10;;;;;;5040323;28;20425;-78
2021/12/14 12:48:50;;;;;;;62.30;4.47;;;;;;;;;;5034392;28;20813;-77
2021/12/14 12:51:34;;;;;;;35.53;3.00;;;;;;;;;;5029049;28;20513;-78
2021/12/14 12:54:24;;;;;;;37.33;3.00;;;15.60;30.30;;;;;;5028656;28;20421;-76
2021/12/14 12:57:09;;;;;;;60.20;3.40;;;;;;;;;;5032168;28;20427;-77
2021/12/14 12:59:38;;;;;;;43.57;4.00;;;;;;;;;;5039798;28;20454;-76
2021/12/14 13:02:31;;;;;;;51.87;3.53;;;;;;;;;;5038899;28;20465;-77
2021/12/14 13:05:14;;;;;;;24.57;2.90;;;15.20;31.10;;;;;;5023518;28;20434;-75
2021/12/14 13:07:44;;;;;;;40.93;2.87;;;14.50;32.60;;;;;;5033800;28;20450;-76
2021/12/14 13:10:13;;;;;;;37.27;3.00;;;;;;;;;;5034398;28;20907;-76
2021/12/14 13:13:04;;;;;;;35.13;3.07;;;13.50;37.20;;;;;;5034103;28;20575;-76
2021/12/14 13:15:39;;;;;;;38.87;3.50;;;;;;;;;;5033789;28;20439;-77
2021/12/14 13:18:20;;;;;;;47.00;3.73;;;14.00;35.50;;;;;;5033229;28;20441;-76
2021/12/14 13:20:47;;;;;;;45.67;4.00;;;;;;;;;;5034154;28;20473;-76
2021/12/14 13:23:13;;;;;;;37.57;2.80;;;;;;;;;;5034413;28;20679;-77
2021/12/14 13:25:43;;;;;;;62.17;3.53;;;14.20;35.70;;;;;;5034312;28;20582;-75
2021/12/14 13:28:10;;;;;;;39.00;3.07;;;;;;;;;;5033798;28;20969;-76
2021/12/14 13:30:36;;;;;;;50.40;3.83;;;14.40;35.40;;;;;;5033934;28;20465;-76
2021/12/14 13:33:02;;;;;;;56.67;3.77;;;14.30;34.40;;;;;;5033296;28;20469;-77
2021/12/14 13:35:32;;;;;;;35.97;2.97;;;14.50;35.20;;;;;;5033871;28;20477;-77
2021/12/14 13:38:00;;;;;;;44.77;3.47;;;;;;;;;;5033067;28;20471;-75
2021/12/14 13:40:40;;;;;;;44.20;4.50;;;;;;;;;;5025863;28;21071;-76
2021/12/14 13:43:11;;;;;;;67.40;4.50;;;;;;;;;;5039127;28;20520;-76
2021/12/14 13:45:50;;;;;;;40.30;3.70;;;15.10;33.30;;;;;;5035793;28;20940;-78
2021/12/14 13:48:20;;;;;;;70.33;4.70;;;14.80;33.40;;;;;;5039498;28;20959;-77
2021/12/14 13:50:50;;;;;;;36.50;2.87;;;14.60;34.30;;;;;;5033126;28;20970;-77
2021/12/14 13:53:16;;;;;;;63.70;3.60;;;;;;;;;;5035563;28;20464;-76
2021/12/14 13:55:44;;;;;;;61.00;4.27;;;14.80;33.90;;;;;;5033870;28;20497;-75
2021/12/14 13:58:16;;;;;;;48.07;3.97;;;;;;;;;;5032906;28;20510;-76
2021/12/14 14:00:42;;;;;;;32.23;3.33;;;;;;;;;;5033278;28;20518;-76
2021/12/14 14:03:09;;;;;;;52.57;4.23;;;;;;;;;;5032916;28;20927;-77
2021/12/14 14:05:36;;;;;;;29.87;3.93;;;;;;;;;;5033497;28;20425;-77
2021/12/14 14:08:10;;;;;;;50.47;4.30;;;;;;;;;;5032827;28;20436;-77
2021/12/14 14:10:36;;;;;;;42.23;3.00;;;;;;;;;;5032902;28;20434;-77
2021/12/14 14:13:18;;;;;;;38.47;3.60;;;;;;;;;;5032866;28;20428;-76
2021/12/14 14:15:44;;;;;;;59.40;3.67;;;;;;;;;;5023605;28;20450;-76
2021/12/14 14:18:12;;;;;;;60.17;3.80;;;;;;;;;;5029296;28;20775;-77
2021/12/14 14:20:39;;;;;;;89.33;4.53;;;;;;;;;;5028811;28;20467;-76
2021/12/14 14:23:11;;;;;;;71.13;3.97;;;;;;;;;;5030087;28;20423;-76
2021/12/14 14:25:42;;;;;;;49.50;3.10;;;;;;;;;;5029368;28;20790;-77
2021/12/14 14:28:23;;;;;;;83.60;3.87;;;;;;;;;;5035638;28;20474;-76
2021/12/14 14:30:51;;;;;;;59.70;3.50;;;12.40;41.10;;;;;;5029134;28;20435;-75
2021/12/14 14:33:32;;;;;;;55.67;3.83;;;;;;;;;;5034091;28;20790;-76